sensor_id;sensor_type;location;lat;lon;timestamp;temperature;humidity
9237;DHT22;24579;42.810;23.214;2022-08-11T00:01:05;17.40;99.90
9237;DHT22;24579;42.810;23.214;2022-08-11T00:03:33;17.30;99.90
9237;DHT22;24579;42.810;23.214;2022-08-11T00:06:01;17.20;99.90
9237;DHT22;24579;42.810;23.214;2022-08-11T00:08:30;17.10;99.90
9237;DHT22;24579;42.810;23.214;2022-08-11T00:11:00;16.90;99.90
9237;DHT22;24579;42.810;23.214;2022-08-11T00:13:33;17.00;99.90
9237;DHT22;24579;42.810;23.214;2022-08-11T00:16:02;16.90;99.90
9237;DHT22;24579;42.810;23.214;2022-08-11T00:18:38;17.00;99.90
9237;DHT22;24579;42.810;23.214;2022-08-11T00:21:07;17.10;99.90
9237;DHT22;24579;42.810;23.214;2022-08-11T00:23:41;17.20;99.90
9237;DHT22;24579;42.810;23.214;2022-08-11T00:26:09;17.10;99.90
9237;DHT22;24579;42.810;23.214;2022-08-11T00:28:37;16.90;99.90
9237;DHT22;24579;42.810;23.214;2022-08-11T00:31:06;16.90;99.90
9237;DHT22;24579;42.810;23.214;2022-08-11T00:33:37;16.70;99.90
9237;DHT22;24579;42.810;23.214;2022-08-11T00:36:05;16.60;99.90
9237;DHT22;24579;42.810;23.214;2022-08-11T00:38:37;16.60;99.90
9237;DHT22;24579;42.810;23.214;2022-08-11T00:41:15;16.60;99.90
9237;DHT22;24579;42.810;23.214;2022-08-11T00:44:06;16.60;99.90
9237;DHT22;24579;42.810;23.214;2022-08-11T00:46:54;16.60;99.90
9237;DHT22;24579;42.810;23.214;2022-08-11T00:49:32;16.60;99.90
9237;DHT22;24579;42.810;23.214;2022-08-11T00:52:11;16.60;99.90
9237;DHT22;24579;42.810;23.214;2022-08-11T00:58:05;16.70;99.90
9237;DHT22;24579;42.810;23.214;2022-08-11T01:00:57;16.40;99.90
9237;DHT22;24579;42.810;23.214;2022-08-11T01:03:51;16.40;99.90
9237;DHT22;24579;42.810;23.214;2022-08-11T01:06:43;16.40;99.90
9237;DHT22;24579;42.810;23.214;2022-08-11T01:09:24;16.40;99.90
9237;DHT22;24579;42.810;23.214;2022-08-11T01:12:37;16.50;99.90
9237;DHT22;24579;42.810;23.214;2022-08-11T01:15:37;16.30;99.90
9237;DHT22;24579;42.810;23.214;2022-08-11T01:37:11;16.20;99.90
9237;DHT22;24579;42.810;23.214;2022-08-11T01:43:13;16.50;99.90
9237;DHT22;24579;42.810;23.214;2022-08-11T01:46:04;16.40;99.90
9237;DHT22;24579;42.810;23.214;2022-08-11T01:48:41;16.40;99.90
9237;DHT22;24579;42.810;23.214;2022-08-11T01:51:23;16.20;99.90
9237;DHT22;24579;42.810;23.214;2022-08-11T01:54:02;16.10;99.90
9237;DHT22;24579;42.810;23.214;2022-08-11T01:56:41;15.90;99.90
9237;DHT22;24579;42.810;23.214;2022-08-11T01:59:16;16.00;99.90
9237;DHT22;24579;42.810;23.214;2022-08-11T02:02:01;15.90;99.90
9237;DHT22;24579;42.810;23.214;2022-08-11T02:04:35;15.70;99.90
9237;DHT22;24579;42.810;23.214;2022-08-11T02:07:12;15.80;99.90
9237;DHT22;24579;42.810;23.214;2022-08-11T02:09:52;15.70;99.90
9237;DHT22;24579;42.810;23.214;2022-08-11T02:12:40;15.70;99.90
9237;DHT22;24579;42.810;23.214;2022-08-11T02:15:14;15.60;99.90
9237;DHT22;24579;42.810;23.214;2022-08-11T02:18:03;15.80;99.90
9237;DHT22;24579;42.810;23.214;2022-08-11T02:20:36;15.80;99.90
9237;DHT22;24579;42.810;23.214;2022-08-11T02:23:28;15.80;99.90
9237;DHT22;24579;42.810;23.214;2022-08-11T02:26:10;15.80;99.90
9237;DHT22;24579;42.810;23.214;2022-08-11T02:29:02;15.90;99.90
9237;DHT22;24579;42.810;23.214;2022-08-11T02:31:41;15.60;99.90
9237;DHT22;24579;42.810;23.214;2022-08-11T02:34:37;15.60;99.90
9237;DHT22;24579;42.810;23.214;2022-08-11T02:37:16;15.40;99.90
9237;DHT22;24579;42.810;23.214;2022-08-11T02:40:01;15.30;99.90
9237;DHT22;24579;42.810;23.214;2022-08-11T02:42:41;15.40;99.90
9237;DHT22;24579;42.810;23.214;2022-08-11T02:45:44;15.60;99.90
9237;DHT22;24579;42.810;23.214;2022-08-11T02:48:23;15.60;99.90
9237;DHT22;24579;42.810;23.214;2022-08-11T02:51:18;15.50;99.90
9237;DHT22;24579;42.810;23.214;2022-08-11T02:53:53;15.40;99.90
9237;DHT22;24579;42.810;23.214;2022-08-11T02:56:30;15.30;99.90
9237;DHT22;24579;42.810;23.214;2022-08-11T02:59:15;15.20;99.90
9237;DHT22;24579;42.810;23.214;2022-08-11T03:02:08;15.10;99.90
9237;DHT22;24579;42.810;23.214;2022-08-11T03:04:43;15.10;99.90
9237;DHT22;24579;42.810;23.214;2022-08-11T03:07:20;15.10;99.90
9237;DHT22;24579;42.810;23.214;2022-08-11T03:09:54;15.00;99.90
9237;DHT22;24579;42.810;23.214;2022-08-11T03:12:31;15.20;99.90
9237;DHT22;24579;42.810;23.214;2022-08-11T03:15:28;15.10;99.90
9237;DHT22;24579;42.810;23.214;2022-08-11T03:18:31;15.40;99.90
9237;DHT22;24579;42.810;23.214;2022-08-11T03:21:06;15.30;99.90
9237;DHT22;24579;42.810;23.214;2022-08-11T03:23:40;15.20;99.90
9237;DHT22;24579;42.810;23.214;2022-08-11T03:26:20;15.00;99.90
9237;DHT22;24579;42.810;23.214;2022-08-11T03:29:03;15.00;99.90
9237;DHT22;24579;42.810;23.214;2022-08-11T03:31:36;15.00;99.90
9237;DHT22;24579;42.810;23.214;2022-08-11T03:34:08;14.90;99.90
9237;DHT22;24579;42.810;23.214;2022-08-11T03:37:06;15.00;99.90
9237;DHT22;24579;42.810;23.214;2022-08-11T03:39:46;15.10;99.90
9237;DHT22;24579;42.810;23.214;2022-08-11T03:42:28;15.00;99.90
9237;DHT22;24579;42.810;23.214;2022-08-11T03:45:11;14.90;99.90
9237;DHT22;24579;42.810;23.214;2022-08-11T03:48:05;15.00;99.90
9237;DHT22;24579;42.810;23.214;2022-08-11T03:50:59;14.90;99.90
9237;DHT22;24579;42.810;23.214;2022-08-11T03:53:54;14.90;99.90
9237;DHT22;24579;42.810;23.214;2022-08-11T04:00:03;14.90;99.90
9237;DHT22;24579;42.810;23.214;2022-08-11T04:03:12;14.90;99.90
9237;DHT22;24579;42.810;23.214;2022-08-11T04:06:26;15.00;99.90
9237;DHT22;24579;42.810;23.214;2022-08-11T04:15:27;15.20;99.90
9237;DHT22;24579;42.810;23.214;2022-08-11T04:21:56;15.40;99.90
9237;DHT22;24579;42.810;23.214;2022-08-11T04:24:52;15.40;99.90
9237;DHT22;24579;42.810;23.214;2022-08-11T04:30:53;15.40;99.90
9237;DHT22;24579;42.810;23.214;2022-08-11T04:33:48;15.40;99.90
9237;DHT22;24579;42.810;23.214;2022-08-11T04:36:56;15.60;99.90
9237;DHT22;24579;42.810;23.214;2022-08-11T04:40:17;15.50;99.90
9237;DHT22;24579;42.810;23.214;2022-08-11T04:43:30;15.50;99.90
9237;DHT22;24579;42.810;23.214;2022-08-11T04:46:31;15.60;99.90
9237;DHT22;24579;42.810;23.214;2022-08-11T04:52:55;15.90;99.90
9237;DHT22;24579;42.810;23.214;2022-08-11T04:56:05;16.00;99.90
9237;DHT22;24579;42.810;23.214;2022-08-11T05:02:57;16.20;99.90
9237;DHT22;24579;42.810;23.214;2022-08-11T05:05:40;16.20;99.90
9237;DHT22;24579;42.810;23.214;2022-08-11T05:08:49;16.20;99.90
9237;DHT22;24579;42.810;23.214;2022-08-11T05:14:37;16.60;99.90
9237;DHT22;24579;42.810;23.214;2022-08-11T05:17:33;16.70;99.90
9237;DHT22;24579;42.810;23.214;2022-08-11T05:20:18;16.80;99.90
9237;DHT22;24579;42.810;23.214;2022-08-11T05:23:04;16.90;99.90
9237;DHT22;24579;42.810;23.214;2022-08-11T05:25:54;17.00;99.90
9237;DHT22;24579;42.810;23.214;2022-08-11T05:28:44;17.20;99.90
9237;DHT22;24579;42.810;23.214;2022-08-11T05:31:33;17.40;99.90
9237;DHT22;24579;42.810;23.214;2022-08-11T05:34:21;17.40;99.90
9237;DHT22;24579;42.810;23.214;2022-08-11T05:37:10;17.60;99.90
9237;DHT22;24579;42.810;23.214;2022-08-11T05:39:43;17.50;99.90
9237;DHT22;24579;42.810;23.214;2022-08-11T05:42:31;17.50;99.90
9237;DHT22;24579;42.810;23.214;2022-08-11T05:45:17;17.70;99.90
9237;DHT22;24579;42.810;23.214;2022-08-11T05:48:03;17.70;99.90
9237;DHT22;24579;42.810;23.214;2022-08-11T05:50:52;17.80;99.90
9237;DHT22;24579;42.810;23.214;2022-08-11T05:53:50;17.90;99.90
9237;DHT22;24579;42.810;23.214;2022-08-11T05:56:42;18.20;99.90
9237;DHT22;24579;42.810;23.214;2022-08-11T05:59:16;18.40;99.90
9237;DHT22;24579;42.810;23.214;2022-08-11T06:01:45;18.50;99.90
9237;DHT22;24579;42.810;23.214;2022-08-11T06:04:17;18.40;99.90
9237;DHT22;24579;42.810;23.214;2022-08-11T06:06:49;18.70;99.90
9237;DHT22;24579;42.810;23.214;2022-08-11T06:09:26;18.80;99.90
9237;DHT22;24579;42.810;23.214;2022-08-11T06:11:55;18.90;99.90
9237;DHT22;24579;42.810;23.214;2022-08-11T06:14:25;18.90;99.90
9237;DHT22;24579;42.810;23.214;2022-08-11T06:16:56;18.90;99.90
9237;DHT22;24579;42.810;23.214;2022-08-11T06:19:32;19.20;99.90
9237;DHT22;24579;42.810;23.214;2022-08-11T06:22:01;19.40;99.90
9237;DHT22;24579;42.810;23.214;2022-08-11T06:24:29;19.60;99.90
9237;DHT22;24579;42.810;23.214;2022-08-11T06:26:58;19.50;99.90
9237;DHT22;24579;42.810;23.214;2022-08-11T06:29:27;19.70;99.90
9237;DHT22;24579;42.810;23.214;2022-08-11T06:31:58;20.00;99.90
9237;DHT22;24579;42.810;23.214;2022-08-11T06:34:39;20.10;99.90
9237;DHT22;24579;42.810;23.214;2022-08-11T06:37:16;20.00;99.90
9237;DHT22;24579;42.810;23.214;2022-08-11T06:39:49;19.90;99.90
9237;DHT22;24579;42.810;23.214;2022-08-11T06:42:35;20.00;99.90
9237;DHT22;24579;42.810;23.214;2022-08-11T06:45:13;20.30;99.90
9237;DHT22;24579;42.810;23.214;2022-08-11T06:47:44;20.40;99.90
9237;DHT22;24579;42.810;23.214;2022-08-11T06:50:16;20.50;99.90
9237;DHT22;24579;42.810;23.214;2022-08-11T06:53:04;20.50;99.90
9237;DHT22;24579;42.810;23.214;2022-08-11T06:55:34;20.40;99.90
9237;DHT22;24579;42.810;23.214;2022-08-11T06:58:21;20.40;99.90
9237;DHT22;24579;42.810;23.214;2022-08-11T07:01:10;20.50;99.90
9237;DHT22;24579;42.810;23.214;2022-08-11T07:03:42;20.70;99.90
9237;DHT22;24579;42.810;23.214;2022-08-11T07:06:21;20.90;99.90
9237;DHT22;24579;42.810;23.214;2022-08-11T07:09:09;21.30;99.90
9237;DHT22;24579;42.810;23.214;2022-08-11T07:12:38;21.50;99.90
9237;DHT22;24579;42.810;23.214;2022-08-11T07:15:28;21.60;99.90
9237;DHT22;24579;42.810;23.214;2022-08-11T07:18:15;21.60;99.90
9237;DHT22;24579;42.810;23.214;2022-08-11T07:21:21;21.70;99.90
9237;DHT22;24579;42.810;23.214;2022-08-11T07:24:12;22.00;99.90
9237;DHT22;24579;42.810;23.214;2022-08-11T07:26:58;22.10;99.90
9237;DHT22;24579;42.810;23.214;2022-08-11T07:29:45;22.40;99.90
9237;DHT22;24579;42.810;23.214;2022-08-11T07:32:21;22.50;99.90
9237;DHT22;24579;42.810;23.214;2022-08-11T07:34:55;22.60;99.90
9237;DHT22;24579;42.810;23.214;2022-08-11T07:37:27;22.20;99.90
9237;DHT22;24579;42.810;23.214;2022-08-11T07:39:58;21.70;99.90
9237;DHT22;24579;42.810;23.214;2022-08-11T07:42:29;22.10;99.90
9237;DHT22;24579;42.810;23.214;2022-08-11T07:45:03;22.50;99.90
9237;DHT22;24579;42.810;23.214;2022-08-11T07:47:48;22.70;99.90
9237;DHT22;24579;42.810;23.214;2022-08-11T07:50:35;22.90;99.90
9237;DHT22;24579;42.810;23.214;2022-08-11T07:53:23;23.10;99.90
9237;DHT22;24579;42.810;23.214;2022-08-11T07:55:53;23.10;99.90
9237;DHT22;24579;42.810;23.214;2022-08-11T07:58:22;23.10;99.90
9237;DHT22;24579;42.810;23.214;2022-08-11T08:01:07;22.60;99.90
9237;DHT22;24579;42.810;23.214;2022-08-11T08:03:52;22.60;99.90
9237;DHT22;24579;42.810;23.214;2022-08-11T08:06:39;22.90;99.90
9237;DHT22;24579;42.810;23.214;2022-08-11T08:09:24;23.40;99.90
9237;DHT22;24579;42.810;23.214;2022-08-11T08:12:09;23.50;99.90
9237;DHT22;24579;42.810;23.214;2022-08-11T08:14:55;23.80;99.90
9237;DHT22;24579;42.810;23.214;2022-08-11T08:17:41;23.90;99.90
9237;DHT22;24579;42.810;23.214;2022-08-11T08:20:25;23.80;99.90
9237;DHT22;24579;42.810;23.214;2022-08-11T08:22:59;23.70;99.90
9237;DHT22;24579;42.810;23.214;2022-08-11T08:25:29;24.00;99.90
9237;DHT22;24579;42.810;23.214;2022-08-11T08:27:58;23.80;99.90
9237;DHT22;24579;42.810;23.214;2022-08-11T08:30:26;23.70;99.90
9237;DHT22;24579;42.810;23.214;2022-08-11T08:33:12;24.10;99.90
9237;DHT22;24579;42.810;23.214;2022-08-11T08:35:41;24.30;99.90
9237;DHT22;24579;42.810;23.214;2022-08-11T08:38:11;24.30;99.90
9237;DHT22;24579;42.810;23.214;2022-08-11T08:40:42;24.60;99.90
9237;DHT22;24579;42.810;23.214;2022-08-11T08:43:14;24.50;99.90
9237;DHT22;24579;42.810;23.214;2022-08-11T08:45:43;24.50;99.90
9237;DHT22;24579;42.810;23.214;2022-08-11T08:48:12;25.00;99.90
9237;DHT22;24579;42.810;23.214;2022-08-11T08:53:34;25.10;99.10
9237;DHT22;24579;42.810;23.214;2022-08-11T08:56:04;24.90;98.40
9237;DHT22;24579;42.810;23.214;2022-08-11T08:58:34;25.20;98.30
9237;DHT22;24579;42.810;23.214;2022-08-11T09:01:02;25.10;97.00
9237;DHT22;24579;42.810;23.214;2022-08-11T09:03:30;25.10;96.80
9237;DHT22;24579;42.810;23.214;2022-08-11T09:05:59;25.20;95.60
9237;DHT22;24579;42.810;23.214;2022-08-11T09:08:26;25.40;95.30
9237;DHT22;24579;42.810;23.214;2022-08-11T09:10:58;25.90;93.80
9237;DHT22;24579;42.810;23.214;2022-08-11T09:13:44;26.20;93.50
9237;DHT22;24579;42.810;23.214;2022-08-11T09:16:12;26.20;93.30
9237;DHT22;24579;42.810;23.214;2022-08-11T09:18:40;26.40;91.90
9237;DHT22;24579;42.810;23.214;2022-08-11T09:21:10;26.10;92.20
9237;DHT22;24579;42.810;23.214;2022-08-11T09:23:40;26.00;91.40
9237;DHT22;24579;42.810;23.214;2022-08-11T09:26:27;26.20;91.60
9237;DHT22;24579;42.810;23.214;2022-08-11T09:29:27;25.70;91.90
9237;DHT22;24579;42.810;23.214;2022-08-11T09:31:55;25.20;91.20
9237;DHT22;24579;42.810;23.214;2022-08-11T09:34:23;25.10;91.60
9237;DHT22;24579;42.810;23.214;2022-08-11T09:36:52;25.50;92.10
9237;DHT22;24579;42.810;23.214;2022-08-11T09:39:38;25.60;90.70
9237;DHT22;24579;42.810;23.214;2022-08-11T09:42:25;25.50;90.80
9237;DHT22;24579;42.810;23.214;2022-08-11T09:45:13;25.80;90.20
9237;DHT22;24579;42.810;23.214;2022-08-11T09:47:42;26.60;89.80
9237;DHT22;24579;42.810;23.214;2022-08-11T09:50:10;26.80;87.00
9237;DHT22;24579;42.810;23.214;2022-08-11T09:52:38;26.50;85.70
9237;DHT22;24579;42.810;23.214;2022-08-11T09:55:07;26.90;88.00
9237;DHT22;24579;42.810;23.214;2022-08-11T09:57:40;26.90;84.60
9237;DHT22;24579;42.810;23.214;2022-08-11T10:00:28;27.60;85.10
9237;DHT22;24579;42.810;23.214;2022-08-11T10:02:56;27.60;83.70
9237;DHT22;24579;42.810;23.214;2022-08-11T10:05:28;27.50;79.70
9237;DHT22;24579;42.810;23.214;2022-08-11T10:08:13;27.40;83.30
9237;DHT22;24579;42.810;23.214;2022-08-11T10:10:45;27.30;81.80
9237;DHT22;24579;42.810;23.214;2022-08-11T10:13:16;27.60;81.90
9237;DHT22;24579;42.810;23.214;2022-08-11T10:15:48;27.30;81.50
9237;DHT22;24579;42.810;23.214;2022-08-11T10:18:17;27.20;81.10
9237;DHT22;24579;42.810;23.214;2022-08-11T10:21:10;27.70;83.00
9237;DHT22;24579;42.810;23.214;2022-08-11T10:23:38;27.80;79.20
9237;DHT22;24579;42.810;23.214;2022-08-11T10:26:23;27.80;79.50
9237;DHT22;24579;42.810;23.214;2022-08-11T10:29:11;28.10;79.30
9237;DHT22;24579;42.810;23.214;2022-08-11T10:31:54;28.20;77.70
9237;DHT22;24579;42.810;23.214;2022-08-11T10:34:40;27.80;78.20
9237;DHT22;24579;42.810;23.214;2022-08-11T10:37:09;27.50;77.60
9237;DHT22;24579;42.810;23.214;2022-08-11T10:39:37;27.10;79.10
9237;DHT22;24579;42.810;23.214;2022-08-11T10:42:06;27.20;80.20
9237;DHT22;24579;42.810;23.214;2022-08-11T10:44:53;27.20;78.30
9237;DHT22;24579;42.810;23.214;2022-08-11T10:47:21;26.80;79.30
9237;DHT22;24579;42.810;23.214;2022-08-11T10:50:00;27.00;78.90
9237;DHT22;24579;42.810;23.214;2022-08-11T10:52:47;27.20;79.30
9237;DHT22;24579;42.810;23.214;2022-08-11T10:55:33;27.30;77.60
9237;DHT22;24579;42.810;23.214;2022-08-11T10:58:17;27.20;80.40
9237;DHT22;24579;42.810;23.214;2022-08-11T11:01:04;27.60;78.60
9237;DHT22;24579;42.810;23.214;2022-08-11T11:03:31;27.40;76.70
9237;DHT22;24579;42.810;23.214;2022-08-11T11:06:05;27.20;77.20
9237;DHT22;24579;42.810;23.214;2022-08-11T11:08:38;27.50;75.60
9237;DHT22;24579;42.810;23.214;2022-08-11T11:11:24;28.10;71.90
9237;DHT22;24579;42.810;23.214;2022-08-11T11:14:16;29.00;71.60
9237;DHT22;24579;42.810;23.214;2022-08-11T11:17:04;28.80;69.60
9237;DHT22;24579;42.810;23.214;2022-08-11T11:19:53;28.70;69.20
9237;DHT22;24579;42.810;23.214;2022-08-11T11:22:24;29.00;67.60
9237;DHT22;24579;42.810;23.214;2022-08-11T11:25:28;29.10;67.60
9237;DHT22;24579;42.810;23.214;2022-08-11T11:28:09;29.20;68.70
9237;DHT22;24579;42.810;23.214;2022-08-11T11:30:44;28.10;70.30
9237;DHT22;24579;42.810;23.214;2022-08-11T11:33:20;27.90;71.60
9237;DHT22;24579;42.810;23.214;2022-08-11T11:36:00;27.70;70.90
9237;DHT22;24579;42.810;23.214;2022-08-11T11:38:31;28.90;68.80
9237;DHT22;24579;42.810;23.214;2022-08-11T11:40:58;29.00;67.20
9237;DHT22;24579;42.810;23.214;2022-08-11T11:43:43;28.50;67.50
9237;DHT22;24579;42.810;23.214;2022-08-11T11:46:11;29.80;65.50
9237;DHT22;24579;42.810;23.214;2022-08-11T11:48:40;29.50;61.90
9237;DHT22;24579;42.810;23.214;2022-08-11T11:51:08;30.00;60.00
9237;DHT22;24579;42.810;23.214;2022-08-11T11:53:39;30.40;62.40
9237;DHT22;24579;42.810;23.214;2022-08-11T11:56:08;30.20;61.20
9237;DHT22;24579;42.810;23.214;2022-08-11T11:58:37;30.40;63.60
9237;DHT22;24579;42.810;23.214;2022-08-11T12:01:24;30.60;62.10
9237;DHT22;24579;42.810;23.214;2022-08-11T12:03:54;30.00;61.60
9237;DHT22;24579;42.810;23.214;2022-08-11T12:06:24;29.60;61.80
9237;DHT22;24579;42.810;23.214;2022-08-11T12:08:54;30.20;62.00
9237;DHT22;24579;42.810;23.214;2022-08-11T12:11:23;31.40;59.40
9237;DHT22;24579;42.810;23.214;2022-08-11T12:14:08;31.50;58.30
9237;DHT22;24579;42.810;23.214;2022-08-11T12:16:37;31.80;58.30
9237;DHT22;24579;42.810;23.214;2022-08-11T12:19:10;32.00;56.00
9237;DHT22;24579;42.810;23.214;2022-08-11T12:21:38;32.30;56.00
9237;DHT22;24579;42.810;23.214;2022-08-11T12:24:28;32.10;57.80
9237;DHT22;24579;42.810;23.214;2022-08-11T12:27:13;32.10;57.40
9237;DHT22;24579;42.810;23.214;2022-08-11T12:29:49;32.60;56.30
9237;DHT22;24579;42.810;23.214;2022-08-11T12:32:17;31.60;56.00
9237;DHT22;24579;42.810;23.214;2022-08-11T12:34:46;31.10;57.10
9237;DHT22;24579;42.810;23.214;2022-08-11T12:37:15;31.90;56.50
9237;DHT22;24579;42.810;23.214;2022-08-11T12:39:50;32.10;55.60
9237;DHT22;24579;42.810;23.214;2022-08-11T12:42:35;32.50;55.40
9237;DHT22;24579;42.810;23.214;2022-08-11T12:45:25;32.80;54.00
9237;DHT22;24579;42.810;23.214;2022-08-11T12:48:03;33.70;52.00
9237;DHT22;24579;42.810;23.214;2022-08-11T12:50:54;34.10;50.60
9237;DHT22;24579;42.810;23.214;2022-08-11T12:53:44;33.10;50.50
9237;DHT22;24579;42.810;23.214;2022-08-11T12:56:12;31.50;54.30
9237;DHT22;24579;42.810;23.214;2022-08-11T12:58:57;32.50;51.80
9237;DHT22;24579;42.810;23.214;2022-08-11T13:01:43;33.70;51.80
9237;DHT22;24579;42.810;23.214;2022-08-11T13:04:28;33.70;52.50
9237;DHT22;24579;42.810;23.214;2022-08-11T13:07:15;34.20;51.20
9237;DHT22;24579;42.810;23.214;2022-08-11T13:09:44;33.50;50.70
9237;DHT22;24579;42.810;23.214;2022-08-11T13:12:12;32.60;52.50
9237;DHT22;24579;42.810;23.214;2022-08-11T13:14:57;32.30;53.00
9237;DHT22;24579;42.810;23.214;2022-08-11T13:17:26;31.30;55.70
9237;DHT22;24579;42.810;23.214;2022-08-11T13:19:55;30.60;57.90
9237;DHT22;24579;42.810;23.214;2022-08-11T13:22:25;30.50;58.70
9237;DHT22;24579;42.810;23.214;2022-08-11T13:24:52;30.30;60.10
9237;DHT22;24579;42.810;23.214;2022-08-11T13:27:21;30.90;59.30
9237;DHT22;24579;42.810;23.214;2022-08-11T13:29:50;31.40;57.40
9237;DHT22;24579;42.810;23.214;2022-08-11T13:32:39;30.60;57.10
9237;DHT22;24579;42.810;23.214;2022-08-11T13:35:07;31.40;57.10
9237;DHT22;24579;42.810;23.214;2022-08-11T13:37:37;30.90;56.20
9237;DHT22;24579;42.810;23.214;2022-08-11T13:40:05;30.10;57.50
9237;DHT22;24579;42.810;23.214;2022-08-11T13:42:33;29.60;58.80
9237;DHT22;24579;42.810;23.214;2022-08-11T13:45:01;29.20;60.30
9237;DHT22;24579;42.810;23.214;2022-08-11T13:47:29;29.10;60.20
9237;DHT22;24579;42.810;23.214;2022-08-11T13:49:57;28.80;61.50
9237;DHT22;24579;42.810;23.214;2022-08-11T13:52:25;29.60;60.00
9237;DHT22;24579;42.810;23.214;2022-08-11T13:54:55;29.70;59.00
9237;DHT22;24579;42.810;23.214;2022-08-11T13:57:23;29.40;59.20
9237;DHT22;24579;42.810;23.214;2022-08-11T13:59:52;29.20;59.50
9237;DHT22;24579;42.810;23.214;2022-08-11T14:02:25;29.10;59.30
9237;DHT22;24579;42.810;23.214;2022-08-11T14:04:57;28.90;60.30
9237;DHT22;24579;42.810;23.214;2022-08-11T14:07:33;28.90;60.10
9237;DHT22;24579;42.810;23.214;2022-08-11T14:10:06;29.70;59.10
9237;DHT22;24579;42.810;23.214;2022-08-11T14:12:34;30.50;57.00
9237;DHT22;24579;42.810;23.214;2022-08-11T14:15:22;30.90;56.50
9237;DHT22;24579;42.810;23.214;2022-08-11T14:17:52;31.10;56.30
9237;DHT22;24579;42.810;23.214;2022-08-11T14:20:20;31.10;55.50
9237;DHT22;24579;42.810;23.214;2022-08-11T14:22:48;30.90;56.30
9237;DHT22;24579;42.810;23.214;2022-08-11T14:25:17;30.40;57.70
9237;DHT22;24579;42.810;23.214;2022-08-11T14:27:45;30.50;57.80
9237;DHT22;24579;42.810;23.214;2022-08-11T14:30:14;30.30;58.20
9237;DHT22;24579;42.810;23.214;2022-08-11T14:32:55;30.80;57.80
9237;DHT22;24579;42.810;23.214;2022-08-11T14:35:23;29.80;57.80
9237;DHT22;24579;42.810;23.214;2022-08-11T14:37:51;29.40;60.00
9237;DHT22;24579;42.810;23.214;2022-08-11T14:40:20;28.90;61.30
9237;DHT22;24579;42.810;23.214;2022-08-11T14:43:01;29.00;60.50
9237;DHT22;24579;42.810;23.214;2022-08-11T14:45:46;28.60;61.50
9237;DHT22;24579;42.810;23.214;2022-08-11T14:48:31;28.40;63.40
9237;DHT22;24579;42.810;23.214;2022-08-11T14:50:58;28.30;62.70
9237;DHT22;24579;42.810;23.214;2022-08-11T14:53:25;28.40;62.00
9237;DHT22;24579;42.810;23.214;2022-08-11T14:55:54;28.00;63.30
9237;DHT22;24579;42.810;23.214;2022-08-11T14:58:39;28.00;64.40
9237;DHT22;24579;42.810;23.214;2022-08-11T15:01:08;28.20;63.10
9237;DHT22;24579;42.810;23.214;2022-08-11T15:03:49;28.00;63.40
9237;DHT22;24579;42.810;23.214;2022-08-11T15:06:17;28.30;63.20
9237;DHT22;24579;42.810;23.214;2022-08-11T15:08:44;28.30;62.30
9237;DHT22;24579;42.810;23.214;2022-08-11T15:11:23;28.00;62.10
9237;DHT22;24579;42.810;23.214;2022-08-11T15:14:10;27.90;62.90
9237;DHT22;24579;42.810;23.214;2022-08-11T15:16:43;28.00;62.90
9237;DHT22;24579;42.810;23.214;2022-08-11T15:19:28;28.10;62.80
9237;DHT22;24579;42.810;23.214;2022-08-11T15:21:58;28.30;62.50
9237;DHT22;24579;42.810;23.214;2022-08-11T15:24:50;28.70;62.20
9237;DHT22;24579;42.810;23.214;2022-08-11T15:27:20;28.30;61.60
9237;DHT22;24579;42.810;23.214;2022-08-11T15:30:06;28.40;62.50
9237;DHT22;24579;42.810;23.214;2022-08-11T15:32:53;28.50;62.00
9237;DHT22;24579;42.810;23.214;2022-08-11T15:35:38;28.30;61.80
9237;DHT22;24579;42.810;23.214;2022-08-11T15:38:24;28.40;62.40
9237;DHT22;24579;42.810;23.214;2022-08-11T15:40:55;28.60;62.10
9237;DHT22;24579;42.810;23.214;2022-08-11T15:43:43;28.50;62.00
9237;DHT22;24579;42.810;23.214;2022-08-11T15:46:31;28.10;61.70
9237;DHT22;24579;42.810;23.214;2022-08-11T15:49:02;27.90;62.90
9237;DHT22;24579;42.810;23.214;2022-08-11T15:51:33;27.90;62.70
9237;DHT22;24579;42.810;23.214;2022-08-11T15:54:04;27.80;62.20
9237;DHT22;24579;42.810;23.214;2022-08-11T15:56:35;27.60;61.90
9237;DHT22;24579;42.810;23.214;2022-08-11T15:59:05;27.30;62.30
9237;DHT22;24579;42.810;23.214;2022-08-11T16:02:07;27.60;61.70
9237;DHT22;24579;42.810;23.214;2022-08-11T16:04:50;27.30;61.90
9237;DHT22;24579;42.810;23.214;2022-08-11T16:07:20;27.20;62.40
9237;DHT22;24579;42.810;23.214;2022-08-11T16:09:53;27.20;63.30
9237;DHT22;24579;42.810;23.214;2022-08-11T16:12:24;27.00;63.90
9237;DHT22;24579;42.810;23.214;2022-08-11T16:14:57;27.00;63.20
9237;DHT22;24579;42.810;23.214;2022-08-11T16:17:45;26.90;63.80
9237;DHT22;24579;42.810;23.214;2022-08-11T16:20:15;27.00;63.70
9237;DHT22;24579;42.810;23.214;2022-08-11T16:22:44;27.10;63.10
9237;DHT22;24579;42.810;23.214;2022-08-11T16:25:16;27.00;62.60
9237;DHT22;24579;42.810;23.214;2022-08-11T16:27:46;26.90;62.30
9237;DHT22;24579;42.810;23.214;2022-08-11T16:30:16;26.80;62.50
9237;DHT22;24579;42.810;23.214;2022-08-11T16:32:46;26.80;62.80
9237;DHT22;24579;42.810;23.214;2022-08-11T16:35:18;26.70;63.30
9237;DHT22;24579;42.810;23.214;2022-08-11T16:38:05;26.70;63.40
9237;DHT22;24579;42.810;23.214;2022-08-11T16:40:53;26.60;63.70
9237;DHT22;24579;42.810;23.214;2022-08-11T16:43:23;26.50;63.80
9237;DHT22;24579;42.810;23.214;2022-08-11T16:46:12;26.30;64.10
9237;DHT22;24579;42.810;23.214;2022-08-11T16:48:59;26.30;64.20
9237;DHT22;24579;42.810;23.214;2022-08-11T16:51:27;26.10;64.60
9237;DHT22;24579;42.810;23.214;2022-08-11T16:53:54;26.20;65.00
9237;DHT22;24579;42.810;23.214;2022-08-11T16:56:26;26.00;65.10
9237;DHT22;24579;42.810;23.214;2022-08-11T16:58:55;26.00;65.50
9237;DHT22;24579;42.810;23.214;2022-08-11T17:01:42;25.90;65.60
9237;DHT22;24579;42.810;23.214;2022-08-11T17:04:18;25.70;65.60
9237;DHT22;24579;42.810;23.214;2022-08-11T17:07:05;25.60;65.70
9237;DHT22;24579;42.810;23.214;2022-08-11T17:09:47;25.60;66.00
9237;DHT22;24579;42.810;23.214;2022-08-11T17:12:33;25.70;65.90
9237;DHT22;24579;42.810;23.214;2022-08-11T17:15:21;25.60;65.90
9237;DHT22;24579;42.810;23.214;2022-08-11T17:18:10;25.60;66.20
9237;DHT22;24579;42.810;23.214;2022-08-11T17:20:59;25.60;66.20
9237;DHT22;24579;42.810;23.214;2022-08-11T17:23:27;25.30;65.90
9237;DHT22;24579;42.810;23.214;2022-08-11T17:26:19;25.20;66.40
9237;DHT22;24579;42.810;23.214;2022-08-11T17:28:50;25.30;67.30
9237;DHT22;24579;42.810;23.214;2022-08-11T17:31:19;25.10;71.40
9237;DHT22;24579;42.810;23.214;2022-08-11T17:34:06;24.90;72.20
9237;DHT22;24579;42.810;23.214;2022-08-11T17:36:53;24.70;73.00
9237;DHT22;24579;42.810;23.214;2022-08-11T17:39:24;24.50;72.60